ΕΜΥ, Εθνική Μετεωρολογική Υπηρεσία - Δελτία Καιρού, Προγνώσεις

ΑΕΡΟΝΑΥΤΙΛΙΑ

GREEK AIRPORTS CODES

LGTS 301620Z 34008KT 9999 FEW030 22/06 Q1010 NOSIG=

EUROPEAN AIRPORTS CODES